Roanoke Regional Airport Airport (ROA)

 

Airport Diagram
Current Weather/Forecast (VFR Conditions)
METAR KROA 181854Z 30018G27KT 10SM FEW050 09/M03 A3012 RMK AO2 PK WND 33030/1834 SLP202 T00891028
TAF KROA 181746Z 1818/1918 29011G19KT P6SM SCT040 BKN250 FM182300 31009KT P6SM SCT150

All Charts
General
Chart Name Download
AIRPORT DIAGRAM
TAKEOFF MINIMUMS
ALTERNATE MINIMUMS
HOT SPOT

Departures
Chart Name Download
BUFIY TWO (RNAV)
DIXXY SEVEN
HOKEE THREE
MONAT TWO (RNAV)
SCUTA TWO (RNAV)

Approaches
Chart Name Download
ILS OR LOC RWY 34
RNAV (GPS) RWY 06
RNAV (GPS) RWY 24
RNAV (GPS) RWY 34
LDA Y RWY 06
LDA Z RWY 06
VOR/DME-A


Inbound Traffic (Arrivals)

No inbound traffic.


Outbound Traffic (Departures)

No outbound traffic.